sensor_id;sensor_type;location;lat;lon;timestamp;P1;durP1;ratioP1;P2;durP2;ratioP2
63114;SDS011;49208;50.874;6.466;2022-07-03T00:00:00;4.80;;;2.30;;
63114;SDS011;49208;50.874;6.466;2022-07-03T00:02:25;4.45;;;2.17;;
63114;SDS011;49208;50.874;6.466;2022-07-03T00:04:51;6.53;;;2.20;;
63114;SDS011;49208;50.874;6.466;2022-07-03T00:07:16;3.58;;;2.20;;
63114;SDS011;49208;50.874;6.466;2022-07-03T00:09:42;3.97;;;2.08;;
63114;SDS011;49208;50.874;6.466;2022-07-03T00:12:08;3.95;;;1.80;;
63114;SDS011;49208;50.874;6.466;2022-07-03T00:14:34;4.40;;;2.65;;
63114;SDS011;49208;50.874;6.466;2022-07-03T00:16:59;5.05;;;2.00;;
63114;SDS011;49208;50.874;6.466;2022-07-03T00:19:25;3.75;;;2.10;;
63114;SDS011;49208;50.874;6.466;2022-07-03T00:21:55;4.72;;;2.22;;
63114;SDS011;49208;50.874;6.466;2022-07-03T00:24:41;3.80;;;2.00;;
63114;SDS011;49208;50.874;6.466;2022-07-03T00:27:11;5.57;;;2.25;;
63114;SDS011;49208;50.874;6.466;2022-07-03T00:29:40;3.65;;;1.98;;
63114;SDS011;49208;50.874;6.466;2022-07-03T00:32:08;4.68;;;2.13;;
63114;SDS011;49208;50.874;6.466;2022-07-03T00:34:35;4.70;;;2.28;;
63114;SDS011;49208;50.874;6.466;2022-07-03T00:37:01;4.53;;;2.60;;
63114;SDS011;49208;50.874;6.466;2022-07-03T00:39:30;5.13;;;2.83;;
63114;SDS011;49208;50.874;6.466;2022-07-03T00:42:00;6.03;;;3.42;;
63114;SDS011;49208;50.874;6.466;2022-07-03T00:44:28;4.05;;;2.65;;
63114;SDS011;49208;50.874;6.466;2022-07-03T00:46:54;5.63;;;3.58;;
63114;SDS011;49208;50.874;6.466;2022-07-03T00:49:21;5.40;;;2.70;;
63114;SDS011;49208;50.874;6.466;2022-07-03T00:51:51;5.55;;;2.60;;
63114;SDS011;49208;50.874;6.466;2022-07-03T00:54:18;5.05;;;2.67;;
63114;SDS011;49208;50.874;6.466;2022-07-03T00:56:48;4.30;;;2.47;;
63114;SDS011;49208;50.874;6.466;2022-07-03T00:59:15;6.32;;;2.38;;
63114;SDS011;49208;50.874;6.466;2022-07-03T01:01:41;5.80;;;2.30;;
63114;SDS011;49208;50.874;6.466;2022-07-03T01:06:50;4.88;;;2.70;;
63114;SDS011;49208;50.874;6.466;2022-07-03T01:09:25;5.47;;;2.00;;
63114;SDS011;49208;50.874;6.466;2022-07-03T01:12:03;3.45;;;1.92;;
63114;SDS011;49208;50.874;6.466;2022-07-03T01:14:44;5.20;;;2.40;;
63114;SDS011;49208;50.874;6.466;2022-07-03T01:19:49;4.13;;;2.20;;
63114;SDS011;49208;50.874;6.466;2022-07-03T01:28:17;7.45;;;2.42;;
63114;SDS011;49208;50.874;6.466;2022-07-03T01:30:49;4.38;;;2.17;;
63114;SDS011;49208;50.874;6.466;2022-07-03T01:33:19;3.75;;;2.10;;
63114;SDS011;49208;50.874;6.466;2022-07-03T01:38:32;3.87;;;2.13;;
63114;SDS011;49208;50.874;6.466;2022-07-03T01:41:02;4.78;;;2.30;;
63114;SDS011;49208;50.874;6.466;2022-07-03T01:43:30;4.38;;;2.30;;
63114;SDS011;49208;50.874;6.466;2022-07-03T01:45:58;3.47;;;2.03;;
63114;SDS011;49208;50.874;6.466;2022-07-03T01:48:25;5.72;;;2.70;;
63114;SDS011;49208;50.874;6.466;2022-07-03T01:50:52;5.22;;;2.38;;
63114;SDS011;49208;50.874;6.466;2022-07-03T01:53:19;4.35;;;2.30;;
63114;SDS011;49208;50.874;6.466;2022-07-03T01:55:45;5.93;;;2.30;;
63114;SDS011;49208;50.874;6.466;2022-07-03T01:58:11;4.50;;;2.20;;
63114;SDS011;49208;50.874;6.466;2022-07-03T02:00:41;3.90;;;2.22;;
63114;SDS011;49208;50.874;6.466;2022-07-03T02:03:12;6.30;;;2.65;;
63114;SDS011;49208;50.874;6.466;2022-07-03T02:05:47;5.20;;;2.22;;
63114;SDS011;49208;50.874;6.466;2022-07-03T02:14:10;3.88;;;2.30;;
63114;SDS011;49208;50.874;6.466;2022-07-03T02:16:52;3.72;;;2.30;;
63114;SDS011;49208;50.874;6.466;2022-07-03T02:19:44;4.35;;;2.35;;
63114;SDS011;49208;50.874;6.466;2022-07-03T02:22:19;3.55;;;2.03;;
63114;SDS011;49208;50.874;6.466;2022-07-03T02:24:48;3.65;;;2.25;;
63114;SDS011;49208;50.874;6.466;2022-07-03T02:27:20;4.55;;;2.72;;
63114;SDS011;49208;50.874;6.466;2022-07-03T02:30:21;3.45;;;2.10;;
63114;SDS011;49208;50.874;6.466;2022-07-03T02:32:44;4.50;;;2.15;;
63114;SDS011;49208;50.874;6.466;2022-07-03T02:35:17;3.65;;;2.20;;
63114;SDS011;49208;50.874;6.466;2022-07-03T02:37:56;5.18;;;2.50;;
63114;SDS011;49208;50.874;6.466;2022-07-03T02:46:20;4.07;;;2.25;;
63114;SDS011;49208;50.874;6.466;2022-07-03T02:49:14;4.78;;;2.47;;
63114;SDS011;49208;50.874;6.466;2022-07-03T02:51:44;5.22;;;2.72;;
63114;SDS011;49208;50.874;6.466;2022-07-03T02:54:15;5.22;;;2.55;;
63114;SDS011;49208;50.874;6.466;2022-07-03T02:56:51;3.80;;;2.05;;
63114;SDS011;49208;50.874;6.466;2022-07-03T02:59:39;6.15;;;2.60;;
63114;SDS011;49208;50.874;6.466;2022-07-03T03:02:07;5.15;;;2.05;;
63114;SDS011;49208;50.874;6.466;2022-07-03T03:04:44;4.53;;;2.33;;
63114;SDS011;49208;50.874;6.466;2022-07-03T03:07:16;4.53;;;2.78;;
63114;SDS011;49208;50.874;6.466;2022-07-03T03:09:44;4.57;;;2.65;;
63114;SDS011;49208;50.874;6.466;2022-07-03T03:12:11;5.20;;;2.20;;
63114;SDS011;49208;50.874;6.466;2022-07-03T03:17:06;4.25;;;2.28;;
63114;SDS011;49208;50.874;6.466;2022-07-03T03:19:33;4.35;;;2.50;;
63114;SDS011;49208;50.874;6.466;2022-07-03T03:22:16;4.65;;;2.50;;
63114;SDS011;49208;50.874;6.466;2022-07-03T03:25:04;4.35;;;2.17;;
63114;SDS011;49208;50.874;6.466;2022-07-03T03:27:29;3.78;;;2.08;;
63114;SDS011;49208;50.874;6.466;2022-07-03T03:29:55;4.13;;;2.15;;
63114;SDS011;49208;50.874;6.466;2022-07-03T03:32:21;5.45;;;2.47;;
63114;SDS011;49208;50.874;6.466;2022-07-03T03:34:47;4.25;;;2.05;;
63114;SDS011;49208;50.874;6.466;2022-07-03T03:37:14;5.80;;;2.25;;
63114;SDS011;49208;50.874;6.466;2022-07-03T03:39:40;4.68;;;2.47;;
63114;SDS011;49208;50.874;6.466;2022-07-03T03:42:05;4.22;;;2.17;;
63114;SDS011;49208;50.874;6.466;2022-07-03T03:44:31;5.05;;;2.67;;
63114;SDS011;49208;50.874;6.466;2022-07-03T03:46:56;6.38;;;2.63;;
63114;SDS011;49208;50.874;6.466;2022-07-03T03:49:22;5.05;;;2.45;;
63114;SDS011;49208;50.874;6.466;2022-07-03T03:51:47;4.63;;;2.50;;
63114;SDS011;49208;50.874;6.466;2022-07-03T03:54:13;4.03;;;2.30;;
63114;SDS011;49208;50.874;6.466;2022-07-03T03:56:39;5.90;;;2.53;;
63114;SDS011;49208;50.874;6.466;2022-07-03T03:59:05;7.20;;;2.28;;
63114;SDS011;49208;50.874;6.466;2022-07-03T04:01:30;4.38;;;2.20;;
63114;SDS011;49208;50.874;6.466;2022-07-03T04:03:55;5.85;;;2.40;;
63114;SDS011;49208;50.874;6.466;2022-07-03T04:06:21;4.65;;;2.50;;
63114;SDS011;49208;50.874;6.466;2022-07-03T04:08:46;5.45;;;2.20;;
63114;SDS011;49208;50.874;6.466;2022-07-03T04:11:12;7.47;;;2.50;;
63114;SDS011;49208;50.874;6.466;2022-07-03T04:13:37;6.13;;;2.60;;
63114;SDS011;49208;50.874;6.466;2022-07-03T04:16:03;5.75;;;2.78;;
63114;SDS011;49208;50.874;6.466;2022-07-03T04:18:28;5.50;;;2.28;;
63114;SDS011;49208;50.874;6.466;2022-07-03T04:20:54;5.28;;;1.77;;
63114;SDS011;49208;50.874;6.466;2022-07-03T04:23:20;3.85;;;1.85;;
63114;SDS011;49208;50.874;6.466;2022-07-03T04:25:46;4.47;;;2.15;;
63114;SDS011;49208;50.874;6.466;2022-07-03T04:28:11;5.05;;;2.35;;
63114;SDS011;49208;50.874;6.466;2022-07-03T04:30:37;6.25;;;2.35;;
63114;SDS011;49208;50.874;6.466;2022-07-03T04:33:02;5.78;;;2.47;;
63114;SDS011;49208;50.874;6.466;2022-07-03T04:35:28;4.75;;;2.10;;
63114;SDS011;49208;50.874;6.466;2022-07-03T04:37:53;5.13;;;2.10;;
63114;SDS011;49208;50.874;6.466;2022-07-03T04:40:19;5.50;;;2.63;;
63114;SDS011;49208;50.874;6.466;2022-07-03T04:42:44;5.60;;;2.10;;
63114;SDS011;49208;50.874;6.466;2022-07-03T04:45:10;4.93;;;2.28;;
63114;SDS011;49208;50.874;6.466;2022-07-03T04:47:35;5.07;;;2.70;;
63114;SDS011;49208;50.874;6.466;2022-07-03T04:50:00;4.10;;;2.13;;
63114;SDS011;49208;50.874;6.466;2022-07-03T04:52:26;5.30;;;2.15;;
63114;SDS011;49208;50.874;6.466;2022-07-03T04:54:51;5.10;;;2.38;;
63114;SDS011;49208;50.874;6.466;2022-07-03T04:57:17;5.43;;;2.42;;
63114;SDS011;49208;50.874;6.466;2022-07-03T04:59:42;6.28;;;2.15;;
63114;SDS011;49208;50.874;6.466;2022-07-03T05:02:08;4.97;;;2.47;;
63114;SDS011;49208;50.874;6.466;2022-07-03T05:04:33;6.28;;;3.15;;
63114;SDS011;49208;50.874;6.466;2022-07-03T05:06:59;4.82;;;2.10;;
63114;SDS011;49208;50.874;6.466;2022-07-03T05:09:24;4.85;;;2.45;;
63114;SDS011;49208;50.874;6.466;2022-07-03T05:11:50;4.90;;;2.20;;
63114;SDS011;49208;50.874;6.466;2022-07-03T05:14:15;5.60;;;2.63;;
63114;SDS011;49208;50.874;6.466;2022-07-03T05:16:41;7.25;;;2.42;;
63114;SDS011;49208;50.874;6.466;2022-07-03T05:19:06;4.50;;;2.35;;
63114;SDS011;49208;50.874;6.466;2022-07-03T05:21:32;3.67;;;2.00;;
63114;SDS011;49208;50.874;6.466;2022-07-03T05:23:57;5.47;;;2.00;;
63114;SDS011;49208;50.874;6.466;2022-07-03T05:26:23;4.03;;;2.13;;
63114;SDS011;49208;50.874;6.466;2022-07-03T05:28:48;5.18;;;2.40;;
63114;SDS011;49208;50.874;6.466;2022-07-03T05:31:13;6.13;;;2.15;;
63114;SDS011;49208;50.874;6.466;2022-07-03T05:33:39;5.45;;;2.00;;
63114;SDS011;49208;50.874;6.466;2022-07-03T05:36:05;4.70;;;2.60;;
63114;SDS011;49208;50.874;6.466;2022-07-03T05:38:30;4.60;;;2.05;;
63114;SDS011;49208;50.874;6.466;2022-07-03T05:41:15;5.10;;;2.20;;
63114;SDS011;49208;50.874;6.466;2022-07-03T05:43:41;4.75;;;2.40;;
63114;SDS011;49208;50.874;6.466;2022-07-03T05:46:06;6.32;;;2.55;;
63114;SDS011;49208;50.874;6.466;2022-07-03T05:48:31;8.63;;;3.00;;
63114;SDS011;49208;50.874;6.466;2022-07-03T05:50:57;7.40;;;2.90;;
63114;SDS011;49208;50.874;6.466;2022-07-03T05:53:22;5.22;;;2.40;;
63114;SDS011;49208;50.874;6.466;2022-07-03T05:55:48;5.63;;;2.30;;
63114;SDS011;49208;50.874;6.466;2022-07-03T05:58:13;5.35;;;2.60;;
63114;SDS011;49208;50.874;6.466;2022-07-03T06:00:39;6.78;;;2.20;;
63114;SDS011;49208;50.874;6.466;2022-07-03T06:03:04;4.15;;;2.00;;
63114;SDS011;49208;50.874;6.466;2022-07-03T06:05:30;4.18;;;1.95;;
63114;SDS011;49208;50.874;6.466;2022-07-03T06:07:57;6.95;;;1.95;;
63114;SDS011;49208;50.874;6.466;2022-07-03T06:10:23;3.38;;;1.83;;
63114;SDS011;49208;50.874;6.466;2022-07-03T06:12:49;4.72;;;2.13;;
63114;SDS011;49208;50.874;6.466;2022-07-03T06:15:15;4.17;;;1.90;;
63114;SDS011;49208;50.874;6.466;2022-07-03T06:17:40;5.90;;;1.80;;
63114;SDS011;49208;50.874;6.466;2022-07-03T06:20:07;5.87;;;1.67;;
63114;SDS011;49208;50.874;6.466;2022-07-03T06:27:23;5.07;;;1.70;;
63114;SDS011;49208;50.874;6.466;2022-07-03T06:29:50;4.15;;;1.58;;
63114;SDS011;49208;50.874;6.466;2022-07-03T06:32:16;4.63;;;1.33;;
63114;SDS011;49208;50.874;6.466;2022-07-03T06:34:41;6.28;;;1.60;;
63114;SDS011;49208;50.874;6.466;2022-07-03T06:37:10;5.03;;;1.50;;
63114;SDS011;49208;50.874;6.466;2022-07-03T06:39:36;4.40;;;1.17;;
63114;SDS011;49208;50.874;6.466;2022-07-03T06:42:01;2.50;;;1.10;;
63114;SDS011;49208;50.874;6.466;2022-07-03T06:44:27;3.95;;;1.70;;
63114;SDS011;49208;50.874;6.466;2022-07-03T06:46:52;3.50;;;1.40;;
63114;SDS011;49208;50.874;6.466;2022-07-03T06:49:18;3.17;;;1.53;;
63114;SDS011;49208;50.874;6.466;2022-07-03T06:51:44;6.00;;;1.50;;
63114;SDS011;49208;50.874;6.466;2022-07-03T06:54:09;3.30;;;1.50;;
63114;SDS011;49208;50.874;6.466;2022-07-03T06:56:35;4.53;;;2.00;;
63114;SDS011;49208;50.874;6.466;2022-07-03T06:59:00;3.73;;;1.80;;
63114;SDS011;49208;50.874;6.466;2022-07-03T07:01:25;3.70;;;1.27;;
63114;SDS011;49208;50.874;6.466;2022-07-03T07:03:51;7.37;;;2.27;;
63114;SDS011;49208;50.874;6.466;2022-07-03T07:06:16;3.70;;;1.70;;
63114;SDS011;49208;50.874;6.466;2022-07-03T07:08:42;5.47;;;2.27;;
63114;SDS011;49208;50.874;6.466;2022-07-03T07:11:07;5.73;;;1.80;;
63114;SDS011;49208;50.874;6.466;2022-07-03T07:13:33;7.27;;;1.93;;
63114;SDS011;49208;50.874;6.466;2022-07-03T07:15:59;5.10;;;1.80;;
63114;SDS011;49208;50.874;6.466;2022-07-03T07:18:24;5.15;;;1.92;;
63114;SDS011;49208;50.874;6.466;2022-07-03T07:20:49;4.93;;;2.07;;
63114;SDS011;49208;50.874;6.466;2022-07-03T07:23:15;5.30;;;2.10;;
63114;SDS011;49208;50.874;6.466;2022-07-03T07:25:40;5.87;;;2.13;;
63114;SDS011;49208;50.874;6.466;2022-07-03T07:28:07;5.38;;;2.00;;
63114;SDS011;49208;50.874;6.466;2022-07-03T07:30:32;5.77;;;1.97;;
63114;SDS011;49208;50.874;6.466;2022-07-03T07:32:57;7.13;;;2.37;;
63114;SDS011;49208;50.874;6.466;2022-07-03T07:35:23;8.47;;;2.10;;
63114;SDS011;49208;50.874;6.466;2022-07-03T07:37:48;6.37;;;1.73;;
63114;SDS011;49208;50.874;6.466;2022-07-03T07:40:14;6.00;;;1.80;;
63114;SDS011;49208;50.874;6.466;2022-07-03T07:42:39;4.83;;;2.00;;
63114;SDS011;49208;50.874;6.466;2022-07-03T07:45:05;5.70;;;2.00;;
63114;SDS011;49208;50.874;6.466;2022-07-03T07:47:31;3.50;;;1.75;;
63114;SDS011;49208;50.874;6.466;2022-07-03T07:49:56;6.57;;;1.93;;
63114;SDS011;49208;50.874;6.466;2022-07-03T07:52:21;5.67;;;1.73;;
63114;SDS011;49208;50.874;6.466;2022-07-03T07:54:49;3.88;;;1.50;;
63114;SDS011;49208;50.874;6.466;2022-07-03T07:57:14;5.20;;;2.10;;
63114;SDS011;49208;50.874;6.466;2022-07-03T07:59:40;4.50;;;1.87;;
63114;SDS011;49208;50.874;6.466;2022-07-03T08:02:05;4.03;;;2.13;;
63114;SDS011;49208;50.874;6.466;2022-07-03T08:04:49;5.72;;;1.63;;
63114;SDS011;49208;50.874;6.466;2022-07-03T08:07:33;4.82;;;2.28;;
63114;SDS011;49208;50.874;6.466;2022-07-03T08:09:58;5.03;;;2.10;;
63114;SDS011;49208;50.874;6.466;2022-07-03T08:12:24;4.20;;;1.83;;
63114;SDS011;49208;50.874;6.466;2022-07-03T08:14:49;5.10;;;1.80;;
63114;SDS011;49208;50.874;6.466;2022-07-03T08:17:14;5.20;;;1.83;;
63114;SDS011;49208;50.874;6.466;2022-07-03T08:19:40;5.03;;;1.67;;
63114;SDS011;49208;50.874;6.466;2022-07-03T08:22:05;3.93;;;1.90;;
63114;SDS011;49208;50.874;6.466;2022-07-03T08:24:32;3.75;;;1.83;;
63114;SDS011;49208;50.874;6.466;2022-07-03T08:27:00;5.80;;;1.90;;
63114;SDS011;49208;50.874;6.466;2022-07-03T08:29:25;5.32;;;1.77;;
63114;SDS011;49208;50.874;6.466;2022-07-03T08:31:52;4.20;;;1.80;;
63114;SDS011;49208;50.874;6.466;2022-07-03T08:34:18;3.13;;;1.30;;
63114;SDS011;49208;50.874;6.466;2022-07-03T08:36:43;4.17;;;1.97;;
63114;SDS011;49208;50.874;6.466;2022-07-03T08:39:09;5.23;;;2.13;;
63114;SDS011;49208;50.874;6.466;2022-07-03T08:41:36;4.97;;;1.93;;
63114;SDS011;49208;50.874;6.466;2022-07-03T08:44:04;5.40;;;2.03;;
63114;SDS011;49208;50.874;6.466;2022-07-03T08:46:31;4.93;;;2.15;;
63114;SDS011;49208;50.874;6.466;2022-07-03T08:48:57;3.88;;;1.80;;
63114;SDS011;49208;50.874;6.466;2022-07-03T08:51:25;3.97;;;2.00;;
63114;SDS011;49208;50.874;6.466;2022-07-03T08:53:53;4.55;;;2.00;;
63114;SDS011;49208;50.874;6.466;2022-07-03T08:56:22;5.57;;;2.05;;
63114;SDS011;49208;50.874;6.466;2022-07-03T08:58:48;5.50;;;1.60;;
63114;SDS011;49208;50.874;6.466;2022-07-03T09:01:18;6.67;;;2.30;;
63114;SDS011;49208;50.874;6.466;2022-07-03T09:03:44;4.25;;;1.70;;
63114;SDS011;49208;50.874;6.466;2022-07-03T09:06:13;4.00;;;1.67;;
63114;SDS011;49208;50.874;6.466;2022-07-03T09:08:40;7.07;;;1.63;;
63114;SDS011;49208;50.874;6.466;2022-07-03T09:11:06;3.97;;;1.97;;
63114;SDS011;49208;50.874;6.466;2022-07-03T09:13:32;5.95;;;2.28;;
63114;SDS011;49208;50.874;6.466;2022-07-03T09:15:58;5.87;;;2.10;;
63114;SDS011;49208;50.874;6.466;2022-07-03T09:18:39;3.63;;;2.00;;
63114;SDS011;49208;50.874;6.466;2022-07-03T09:21:06;4.88;;;1.67;;
63114;SDS011;49208;50.874;6.466;2022-07-03T09:23:46;4.05;;;1.58;;
63114;SDS011;49208;50.874;6.466;2022-07-03T09:26:16;3.33;;;1.80;;
63114;SDS011;49208;50.874;6.466;2022-07-03T09:28:48;7.53;;;2.10;;
63114;SDS011;49208;50.874;6.466;2022-07-03T09:33:53;5.57;;;1.80;;
63114;SDS011;49208;50.874;6.466;2022-07-03T09:39:09;9.13;;;2.20;;
63114;SDS011;49208;50.874;6.466;2022-07-03T09:47:08;4.97;;;2.28;;
63114;SDS011;49208;50.874;6.466;2022-07-03T09:49:48;3.75;;;1.95;;
63114;SDS011;49208;50.874;6.466;2022-07-03T09:55:40;5.60;;;1.92;;
63114;SDS011;49208;50.874;6.466;2022-07-03T09:58:06;5.47;;;1.98;;
63114;SDS011;49208;50.874;6.466;2022-07-03T10:00:32;3.87;;;1.67;;
63114;SDS011;49208;50.874;6.466;2022-07-03T10:03:03;3.58;;;1.67;;
63114;SDS011;49208;50.874;6.466;2022-07-03T10:05:40;5.25;;;2.00;;
63114;SDS011;49208;50.874;6.466;2022-07-03T10:11:11;3.53;;;1.77;;
63114;SDS011;49208;50.874;6.466;2022-07-03T10:13:37;5.33;;;1.83;;
63114;SDS011;49208;50.874;6.466;2022-07-03T10:16:05;2.13;;;1.13;;
63114;SDS011;49208;50.874;6.466;2022-07-03T10:18:50;3.80;;;1.75;;
63114;SDS011;49208;50.874;6.466;2022-07-03T10:21:17;5.07;;;2.13;;
63114;SDS011;49208;50.874;6.466;2022-07-03T10:23:43;4.65;;;1.40;;
63114;SDS011;49208;50.874;6.466;2022-07-03T10:26:09;5.78;;;1.52;;
63114;SDS011;49208;50.874;6.466;2022-07-03T10:28:35;4.90;;;1.90;;
63114;SDS011;49208;50.874;6.466;2022-07-03T10:31:01;4.25;;;1.60;;
63114;SDS011;49208;50.874;6.466;2022-07-03T10:33:31;5.93;;;1.70;;
63114;SDS011;49208;50.874;6.466;2022-07-03T10:36:01;2.85;;;1.10;;
63114;SDS011;49208;50.874;6.466;2022-07-03T10:41:49;4.75;;;1.67;;
63114;SDS011;49208;50.874;6.466;2022-07-03T10:44:48;5.38;;;1.50;;
63114;SDS011;49208;50.874;6.466;2022-07-03T10:47:36;3.90;;;1.27;;
63114;SDS011;49208;50.874;6.466;2022-07-03T10:50:06;3.90;;;1.70;;
63114;SDS011;49208;50.874;6.466;2022-07-03T10:52:36;4.13;;;1.80;;
63114;SDS011;49208;50.874;6.466;2022-07-03T10:55:03;6.50;;;1.60;;
63114;SDS011;49208;50.874;6.466;2022-07-03T10:57:32;5.43;;;1.98;;
63114;SDS011;49208;50.874;6.466;2022-07-03T10:59:59;4.65;;;1.67;;
63114;SDS011;49208;50.874;6.466;2022-07-03T11:02:38;2.75;;;1.23;;
63114;SDS011;49208;50.874;6.466;2022-07-03T11:07:35;2.70;;;1.30;;
63114;SDS011;49208;50.874;6.466;2022-07-03T11:12:56;6.03;;;1.40;;
63114;SDS011;49208;50.874;6.466;2022-07-03T11:18:13;5.53;;;1.85;;
63114;SDS011;49208;50.874;6.466;2022-07-03T11:25:42;5.30;;;1.20;;
63114;SDS011;49208;50.874;6.466;2022-07-03T11:38:42;2.30;;;1.13;;
63114;SDS011;49208;50.874;6.466;2022-07-03T11:41:16;5.60;;;1.40;;
63114;SDS011;49208;50.874;6.466;2022-07-03T11:43:48;3.87;;;1.53;;
63114;SDS011;49208;50.874;6.466;2022-07-03T11:46:27;3.77;;;1.30;;
63114;SDS011;49208;50.874;6.466;2022-07-03T11:51:36;2.65;;;1.00;;
63114;SDS011;49208;50.874;6.466;2022-07-03T11:54:04;2.47;;;1.15;;
63114;SDS011;49208;50.874;6.466;2022-07-03T11:56:30;3.70;;;1.40;;
63114;SDS011;49208;50.874;6.466;2022-07-03T11:58:57;3.20;;;1.20;;
63114;SDS011;49208;50.874;6.466;2022-07-03T12:09:19;3.03;;;1.13;;
63114;SDS011;49208;50.874;6.466;2022-07-03T12:11:59;3.47;;;1.02;;
63114;SDS011;49208;50.874;6.466;2022-07-03T12:14:45;3.97;;;1.10;;
63114;SDS011;49208;50.874;6.466;2022-07-03T12:17:17;5.40;;;1.27;;
63114;SDS011;49208;50.874;6.466;2022-07-03T12:19:48;2.80;;;0.95;;
63114;SDS011;49208;50.874;6.466;2022-07-03T12:22:24;3.92;;;1.10;;
63114;SDS011;49208;50.874;6.466;2022-07-03T12:27:25;3.87;;;1.10;;
63114;SDS011;49208;50.874;6.466;2022-07-03T12:29:51;3.80;;;1.40;;
63114;SDS011;49208;50.874;6.466;2022-07-03T12:32:17;4.67;;;1.27;;
63114;SDS011;49208;50.874;6.466;2022-07-03T12:34:43;2.00;;;0.90;;
63114;SDS011;49208;50.874;6.466;2022-07-03T12:37:08;3.77;;;1.10;;
63114;SDS011;49208;50.874;6.466;2022-07-03T12:39:47;2.93;;;0.87;;
63114;SDS011;49208;50.874;6.466;2022-07-03T12:42:21;4.25;;;1.33;;
63114;SDS011;49208;50.874;6.466;2022-07-03T12:45:00;4.18;;;1.13;;
63114;SDS011;49208;50.874;6.466;2022-07-03T12:47:27;2.88;;;1.20;;
63114;SDS011;49208;50.874;6.466;2022-07-03T12:50:00;3.47;;;0.90;;
63114;SDS011;49208;50.874;6.466;2022-07-03T12:52:29;1.75;;;0.85;;
63114;SDS011;49208;50.874;6.466;2022-07-03T12:54:55;2.75;;;1.00;;
63114;SDS011;49208;50.874;6.466;2022-07-03T12:57:22;3.50;;;1.17;;
63114;SDS011;49208;50.874;6.466;2022-07-03T13:02:38;1.75;;;1.13;;
63114;SDS011;49208;50.874;6.466;2022-07-03T13:05:14;3.10;;;1.10;;
63114;SDS011;49208;50.874;6.466;2022-07-03T13:10:12;4.95;;;1.00;;
63114;SDS011;49208;50.874;6.466;2022-07-03T13:12:46;2.67;;;1.15;;
63114;SDS011;49208;50.874;6.466;2022-07-03T13:15:16;2.47;;;1.33;;
63114;SDS011;49208;50.874;6.466;2022-07-03T13:20:34;2.85;;;0.90;;
63114;SDS011;49208;50.874;6.466;2022-07-03T13:23:00;2.70;;;1.20;;
63114;SDS011;49208;50.874;6.466;2022-07-03T13:25:27;1.95;;;1.17;;
63114;SDS011;49208;50.874;6.466;2022-07-03T13:30:33;3.20;;;0.90;;
63114;SDS011;49208;50.874;6.466;2022-07-03T13:32:59;3.33;;;1.00;;
63114;SDS011;49208;50.874;6.466;2022-07-03T13:35:25;3.08;;;1.20;;
63114;SDS011;49208;50.874;6.466;2022-07-03T13:37:50;3.50;;;0.93;;
63114;SDS011;49208;50.874;6.466;2022-07-03T13:40:15;3.47;;;1.00;;
63114;SDS011;49208;50.874;6.466;2022-07-03T13:42:41;2.60;;;1.23;;
63114;SDS011;49208;50.874;6.466;2022-07-03T13:45:06;3.87;;;0.93;;
63114;SDS011;49208;50.874;6.466;2022-07-03T13:47:32;4.33;;;1.07;;
63114;SDS011;49208;50.874;6.466;2022-07-03T13:49:58;6.00;;;1.10;;
63114;SDS011;49208;50.874;6.466;2022-07-03T13:52:23;2.37;;;1.00;;
63114;SDS011;49208;50.874;6.466;2022-07-03T13:54:48;3.57;;;1.10;;
63114;SDS011;49208;50.874;6.466;2022-07-03T13:57:14;4.17;;;1.20;;
63114;SDS011;49208;50.874;6.466;2022-07-03T13:59:39;3.77;;;1.03;;
63114;SDS011;49208;50.874;6.466;2022-07-03T14:02:05;3.33;;;0.90;;
63114;SDS011;49208;50.874;6.466;2022-07-03T14:04:31;2.95;;;0.90;;
63114;SDS011;49208;50.874;6.466;2022-07-03T14:06:57;3.07;;;1.13;;
63114;SDS011;49208;50.874;6.466;2022-07-03T14:09:22;2.43;;;1.10;;
63114;SDS011;49208;50.874;6.466;2022-07-03T14:11:48;4.00;;;1.27;;
63114;SDS011;49208;50.874;6.466;2022-07-03T14:16:40;2.53;;;0.97;;
63114;SDS011;49208;50.874;6.466;2022-07-03T14:19:05;1.60;;;0.80;;
63114;SDS011;49208;50.874;6.466;2022-07-03T14:21:31;2.47;;;0.97;;
63114;SDS011;49208;50.874;6.466;2022-07-03T14:23:57;3.67;;;1.00;;
63114;SDS011;49208;50.874;6.466;2022-07-03T14:26:22;2.97;;;1.03;;
63114;SDS011;49208;50.874;6.466;2022-07-03T14:29:06;2.47;;;1.02;;
63114;SDS011;49208;50.874;6.466;2022-07-03T14:31:52;6.55;;;1.52;;
63114;SDS011;49208;50.874;6.466;2022-07-03T14:34:36;3.05;;;1.30;;
63114;SDS011;49208;50.874;6.466;2022-07-03T14:37:02;6.57;;;1.30;;
63114;SDS011;49208;50.874;6.466;2022-07-03T14:39:27;5.23;;;1.50;;
63114;SDS011;49208;50.874;6.466;2022-07-03T14:41:53;5.63;;;1.23;;
63114;SDS011;49208;50.874;6.466;2022-07-03T14:44:18;6.43;;;1.20;;
63114;SDS011;49208;50.874;6.466;2022-07-03T14:46:46;3.30;;;1.30;;
63114;SDS011;49208;50.874;6.466;2022-07-03T14:49:12;4.77;;;1.23;;
63114;SDS011;49208;50.874;6.466;2022-07-03T14:51:37;5.43;;;1.40;;
63114;SDS011;49208;50.874;6.466;2022-07-03T14:54:03;4.67;;;1.20;;
63114;SDS011;49208;50.874;6.466;2022-07-03T14:56:28;3.50;;;1.47;;
63114;SDS011;49208;50.874;6.466;2022-07-03T14:58:54;3.73;;;1.10;;
63114;SDS011;49208;50.874;6.466;2022-07-03T15:01:25;3.47;;;1.42;;
63114;SDS011;49208;50.874;6.466;2022-07-03T15:04:00;5.87;;;1.13;;
63114;SDS011;49208;50.874;6.466;2022-07-03T15:06:27;2.33;;;1.00;;
63114;SDS011;49208;50.874;6.466;2022-07-03T15:14:22;4.85;;;1.40;;
63114;SDS011;49208;50.874;6.466;2022-07-03T15:16:49;3.70;;;1.20;;
63114;SDS011;49208;50.874;6.466;2022-07-03T15:19:16;3.20;;;1.40;;
63114;SDS011;49208;50.874;6.466;2022-07-03T15:21:45;2.90;;;1.10;;
63114;SDS011;49208;50.874;6.466;2022-07-03T15:24:10;2.40;;;1.30;;
63114;SDS011;49208;50.874;6.466;2022-07-03T15:26:37;2.92;;;1.38;;
63114;SDS011;49208;50.874;6.466;2022-07-03T15:29:05;3.10;;;1.23;;
63114;SDS011;49208;50.874;6.466;2022-07-03T15:31:33;2.97;;;1.37;;
63114;SDS011;49208;50.874;6.466;2022-07-03T15:34:04;3.08;;;1.20;;
63114;SDS011;49208;50.874;6.466;2022-07-03T15:36:34;2.05;;;1.20;;
63114;SDS011;49208;50.874;6.466;2022-07-03T15:39:04;8.75;;;1.00;;
63114;SDS011;49208;50.874;6.466;2022-07-03T15:41:36;3.92;;;1.40;;
63114;SDS011;49208;50.874;6.466;2022-07-03T15:44:25;3.40;;;1.17;;
63114;SDS011;49208;50.874;6.466;2022-07-03T15:47:57;6.25;;;1.23;;
63114;SDS011;49208;50.874;6.466;2022-07-03T15:50:25;4.78;;;1.20;;
63114;SDS011;49208;50.874;6.466;2022-07-03T15:52:58;3.10;;;0.93;;
63114;SDS011;49208;50.874;6.466;2022-07-03T15:55:25;4.47;;;1.45;;
63114;SDS011;49208;50.874;6.466;2022-07-03T15:58:01;3.05;;;1.27;;
63114;SDS011;49208;50.874;6.466;2022-07-03T16:00:35;2.63;;;1.17;;
63114;SDS011;49208;50.874;6.466;2022-07-03T16:05:53;3.55;;;1.27;;
63114;SDS011;49208;50.874;6.466;2022-07-03T16:08:21;3.25;;;0.98;;
63114;SDS011;49208;50.874;6.466;2022-07-03T16:10:48;3.92;;;0.90;;
63114;SDS011;49208;50.874;6.466;2022-07-03T16:13:16;1.77;;;0.90;;
63114;SDS011;49208;50.874;6.466;2022-07-03T16:15:49;2.30;;;0.90;;
63114;SDS011;49208;50.874;6.466;2022-07-03T16:18:16;2.35;;;0.90;;
63114;SDS011;49208;50.874;6.466;2022-07-03T16:20:43;2.35;;;0.82;;
63114;SDS011;49208;50.874;6.466;2022-07-03T16:23:10;5.32;;;1.17;;
63114;SDS011;49208;50.874;6.466;2022-07-03T16:25:37;2.92;;;1.00;;
63114;SDS011;49208;50.874;6.466;2022-07-03T16:28:05;3.45;;;1.02;;
63114;SDS011;49208;50.874;6.466;2022-07-03T16:30:34;3.95;;;0.95;;
63114;SDS011;49208;50.874;6.466;2022-07-03T16:33:04;3.20;;;1.10;;
63114;SDS011;49208;50.874;6.466;2022-07-03T16:35:39;3.70;;;1.27;;
63114;SDS011;49208;50.874;6.466;2022-07-03T16:38:08;2.15;;;0.82;;
63114;SDS011;49208;50.874;6.466;2022-07-03T16:40:35;2.42;;;0.82;;
63114;SDS011;49208;50.874;6.466;2022-07-03T16:43:03;2.80;;;1.02;;
63114;SDS011;49208;50.874;6.466;2022-07-03T16:45:30;2.88;;;1.00;;
63114;SDS011;49208;50.874;6.466;2022-07-03T16:48:08;2.50;;;0.80;;